Terminal Aerodrome Forecast
Issued by NWS Charleston, WV

Current Version | Previous Version | Graphics & Text | Print | Product List | Glossary On
Versions: 1 2 3 4 5 6 7 8 9 10 11 12 13 14 15 16 17 18 19 20 21 22 23 24 25 26 27 28 29 30 31 32
000
FTUS41 KRLX 302300 RRA
TAFCRW
TAF
KCRW 302346Z 3100/3124 20004KT P6SM SCT250
     FM310900 VRB03KT P6SM OVC070 PROB30 3109/3112 5SM -TSRA
      OVC050CB
     FM311600 23008KT 3SM SHRA VCTS OVC040CB PROB30 3118/3120 2SM
      -TSRA OVC050CB
     FM312000 25007KT P6SM BKN050=

USA.gov is the U.S. government's official web portal to all federal, state and local government web resources and services.